Time;durP1;ratioP1;P1;durP2;ratioP2;P2;SDS_P1;SDS_P2;PMS_P1;PMS_P2;Temp;Humidity;BMP_temperature;BMP_pressure;BME280_temperature;BME280_humidity;BME280_pressure;Samples;Min_cycle;Max_cycle;Signal;HPM_P1;HPM_P2
2023/07/23 00:02:15;;;;;;;10.27;4.82;;;17.20;68.80;;;;;;6133054;23;20096;-89
2023/07/23 00:04:42;;;;;;;8.90;4.67;;;17.10;69.20;;;;;;6133365;23;20028;-89
2023/07/23 00:07:09;;;;;;;11.18;5.85;;;17.00;69.60;;;;;;6157691;23;20017;-89
2023/07/23 00:09:36;;;;;;;10.60;5.47;;;17.00;69.90;;;;;;6157655;23;20017;-89
2023/07/23 00:12:04;;;;;;;9.05;4.88;;;16.90;69.80;;;;;;6157747;23;20072;-89
2023/07/23 00:14:31;;;;;;;10.60;5.18;;;16.90;70.00;;;;;;6132870;23;20446;-89
2023/07/23 00:16:58;;;;;;;10.27;4.87;;;16.80;70.00;;;;;;6133453;23;20077;-89
2023/07/23 00:19:25;;;;;;;8.85;5.15;;;16.80;70.30;;;;;;6133428;23;20025;-89
2023/07/23 00:21:53;;;;;;;9.18;4.75;;;16.80;70.30;;;;;;6157428;23;20100;-89
2023/07/23 00:24:20;;;;;;;9.95;5.40;;;16.80;70.30;;;;;;6133124;23;20021;-89
2023/07/23 00:26:47;;;;;;;10.70;5.28;;;16.70;70.50;;;;;;6133063;23;20014;-89
2023/07/23 00:29:14;;;;;;;9.23;4.80;;;16.80;70.10;;;;;;6133004;23;20022;-89
2023/07/23 00:31:41;;;;;;;8.88;4.78;;;16.80;69.90;;;;;;6157304;23;20029;-89
2023/07/23 00:34:09;;;;;;;9.38;5.28;;;16.70;69.70;;;;;;6132741;23;20026;-89
2023/07/23 00:36:36;;;;;;;8.70;4.32;;;16.60;69.50;;;;;;6132929;23;20072;-89
2023/07/23 00:39:05;;;;;;;7.70;4.47;;;16.60;69.60;;;;;;6132744;23;20036;-89
2023/07/23 00:41:32;;;;;;;8.97;4.33;;;16.60;69.60;;;;;;6132863;23;20017;-89
2023/07/23 00:44:00;;;;;;;7.95;4.20;;;16.60;69.50;;;;;;6157241;23;20029;-89
2023/07/23 00:46:27;;;;;;;8.32;4.68;;;16.60;69.40;;;;;;6157546;23;20017;-89
2023/07/23 00:48:55;;;;;;;10.57;4.55;;;16.50;69.30;;;;;;6132996;23;20029;-89
2023/07/23 00:51:22;;;;;;;9.05;4.22;;;16.50;69.60;;;;;;6132832;23;20028;-89
2023/07/23 00:53:50;;;;;;;8.80;4.63;;;16.40;70.20;;;;;;6132630;23;20032;-88
2023/07/23 00:56:17;;;;;;;9.70;5.15;;;16.30;70.20;;;;;;6132699;23;20471;-89
2023/07/23 00:58:46;;;;;;;8.25;4.90;;;16.40;70.40;;;;;;6132219;23;20024;-89
2023/07/23 01:01:14;;;;;;;11.35;5.10;;;16.30;70.60;;;;;;6131944;23;20028;-89
2023/07/23 01:03:41;;;;;;;9.93;5.35;;;16.30;70.30;;;;;;6107619;23;20018;-89
2023/07/23 01:06:10;;;;;;;8.23;4.43;;;16.30;70.30;;;;;;6132169;23;20018;-89
2023/07/23 01:08:39;;;;;;;8.68;4.35;;;16.40;70.30;;;;;;6107417;23;20024;-89
2023/07/23 01:11:07;;;;;;;10.07;5.00;;;16.30;70.30;;;;;;6107470;23;20026;-89
2023/07/23 01:13:36;;;;;;;10.43;5.22;;;16.30;70.50;;;;;;6107623;23;20022;-89
2023/07/23 01:16:07;;;;;;;9.13;4.90;;;16.20;70.70;;;;;;6107617;23;20025;-89
2023/07/23 01:18:39;;;;;;;7.73;4.73;;;16.20;70.90;;;;;;6107633;23;20022;-89
2023/07/23 01:21:06;;;;;;;10.15;5.07;;;16.10;71.00;;;;;;6107654;23;20021;-89
2023/07/23 01:23:33;;;;;;;9.23;4.68;;;16.00;71.20;;;;;;6131740;23;20048;-89
2023/07/23 01:26:01;;;;;;;10.75;4.85;;;16.00;71.30;;;;;;6131699;23;20100;-89
2023/07/23 01:28:28;;;;;;;9.50;4.97;;;16.00;71.20;;;;;;6131762;23;20017;-89
2023/07/23 01:30:55;;;;;;;8.27;4.63;;;16.00;71.20;;;;;;6131682;23;20355;-89
2023/07/23 01:33:23;;;;;;;8.77;4.93;;;16.10;71.20;;;;;;6131694;23;20021;-89
2023/07/23 01:35:53;;;;;;;8.68;5.00;;;16.00;71.30;;;;;;6107401;23;20017;-89
2023/07/23 01:38:21;;;;;;;12.52;5.10;;;16.00;71.50;;;;;;6107422;23;20117;-89
2023/07/23 01:40:50;;;;;;;10.45;5.35;;;16.00;71.50;;;;;;6107540;23;20348;-89
2023/07/23 01:43:17;;;;;;;10.47;4.93;;;16.00;71.90;;;;;;6107556;23;20026;-89
2023/07/23 01:45:45;;;;;;;10.23;5.53;;;16.00;71.90;;;;;;6107328;23;20351;-89
2023/07/23 01:48:13;;;;;;;8.15;4.40;;;16.00;71.90;;;;;;6107216;23;20022;-89
2023/07/23 01:50:40;;;;;;;8.20;4.95;;;15.90;72.00;;;;;;6107107;23;20025;-89
2023/07/23 01:53:07;;;;;;;8.75;4.53;;;16.00;72.00;;;;;;6131490;23;20013;-88
2023/07/23 01:55:35;;;;;;;8.83;4.77;;;16.00;72.00;;;;;;6153018;23;20021;-89
2023/07/23 01:58:02;;;;;;;9.68;4.70;;;15.90;71.90;;;;;;6156042;23;20068;-89
2023/07/23 02:00:29;;;;;;;9.50;5.00;;;15.80;72.30;;;;;;6131512;23;20021;-88
2023/07/23 02:02:56;;;;;;;9.00;5.18;;;15.80;72.50;;;;;;6132066;23;20021;-89
2023/07/23 02:05:23;;;;;;;10.20;5.13;;;15.80;72.50;;;;;;6131706;23;20020;-89
2023/07/23 02:07:50;;;;;;;11.87;4.90;;;15.70;72.70;;;;;;6155909;23;20444;-89
2023/07/23 02:10:19;;;;;;;9.70;4.72;;;15.80;72.60;;;;;;6155684;23;20467;-89
2023/07/23 02:12:47;;;;;;;9.95;5.10;;;15.80;72.40;;;;;;6155884;23;20022;-89
2023/07/23 02:15:14;;;;;;;9.95;5.35;;;15.80;72.40;;;;;;6156806;23;20025;-89
2023/07/23 02:17:41;;;;;;;8.65;4.80;;;15.90;72.30;;;;;;6131336;23;20017;-89
2023/07/23 02:20:09;;;;;;;9.97;5.30;;;15.90;72.30;;;;;;6131386;23;20045;-89
2023/07/23 02:22:36;;;;;;;11.00;4.47;;;15.80;72.10;;;;;;6131137;23;20073;-89
2023/07/23 02:25:04;;;;;;;11.52;5.00;;;15.90;71.80;;;;;;6155674;23;20104;-89
2023/07/23 02:27:34;;;;;;;9.20;4.45;;;15.90;71.70;;;;;;6155767;23;20013;-89
2023/07/23 02:30:01;;;;;;;9.23;4.53;;;15.80;71.90;;;;;;6155880;23;20456;-89
2023/07/23 02:32:28;;;;;;;8.20;4.57;;;15.80;72.10;;;;;;6155650;23;20482;-89
2023/07/23 02:34:56;;;;;;;8.38;4.60;;;15.80;72.00;;;;;;6155656;23;20032;-89
2023/07/23 02:37:23;;;;;;;9.90;4.88;;;15.80;72.30;;;;;;6131229;23;20479;-89
2023/07/23 02:39:52;;;;;;;8.23;4.32;;;15.70;72.10;;;;;;6155637;23;20161;-89
2023/07/23 02:42:19;;;;;;;8.13;4.82;;;15.80;72.20;;;;;;6131217;23;20017;-89
2023/07/23 02:44:46;;;;;;;8.90;4.47;;;15.80;72.10;;;;;;6131101;23;20021;-89
2023/07/23 02:47:13;;;;;;;7.75;4.43;;;15.70;72.20;;;;;;6155815;23;20326;-89
2023/07/23 02:49:40;;;;;;;9.10;4.53;;;15.70;72.10;;;;;;6131117;23;20471;-89
2023/07/23 02:52:07;;;;;;;7.90;4.22;;;15.70;72.00;;;;;;6156023;23;20408;-89
2023/07/23 02:54:34;;;;;;;9.15;4.50;;;15.70;72.10;;;;;;6130895;23;20044;-89
2023/07/23 02:57:02;;;;;;;7.43;4.20;;;15.70;72.20;;;;;;6130969;23;20025;-89
2023/07/23 02:59:29;;;;;;;8.68;4.68;;;15.70;72.20;;;;;;6131153;23;20108;-89
2023/07/23 03:01:56;;;;;;;9.18;4.50;;;15.70;72.20;;;;;;6154995;23;20017;-89
2023/07/23 03:04:26;;;;;;;9.13;4.88;;;15.70;72.40;;;;;;6155557;23;20052;-89
2023/07/23 03:06:54;;;;;;;9.50;4.32;;;15.70;72.10;;;;;;6155619;23;20018;-89
2023/07/23 03:09:22;;;;;;;7.43;4.10;;;15.70;71.80;;;;;;6155437;23;20448;-89
2023/07/23 03:11:49;;;;;;;7.35;4.03;;;15.70;71.90;;;;;;6131225;23;20049;-88
2023/07/23 03:14:16;;;;;;;9.60;4.72;;;15.70;71.60;;;;;;6155474;23;20013;-89
2023/07/23 03:16:43;;;;;;;8.45;4.18;;;15.70;71.90;;;;;;6155712;23;20032;-89
2023/07/23 03:19:11;;;;;;;9.90;3.85;;;15.80;71.50;;;;;;6155386;23;20021;-89
2023/07/23 03:21:38;;;;;;;8.67;4.43;;;15.80;71.40;;;;;;6157965;23;20014;-89
2023/07/23 03:24:06;;;;;;;8.98;4.55;;;15.90;71.10;;;;;;6134486;23;20052;-89
2023/07/23 03:26:33;;;;;;;7.47;4.35;;;15.80;71.50;;;;;;6134353;23;20024;-89
2023/07/23 03:29:00;;;;;;;7.50;4.38;;;15.80;71.50;;;;;;6134445;23;20017;-89
2023/07/23 03:31:27;;;;;;;8.15;4.18;;;15.80;71.40;;;;;;6134484;23;20021;-89
2023/07/23 03:33:54;;;;;;;8.00;4.30;;;15.70;71.70;;;;;;6134735;23;20025;-89
2023/07/23 03:36:21;;;;;;;11.05;4.60;;;15.70;72.00;;;;;;6134272;23;20064;-89
2023/07/23 03:38:50;;;;;;;9.60;4.82;;;15.70;72.10;;;;;;6134722;23;20517;-89
2023/07/23 03:41:17;;;;;;;9.15;4.78;;;15.60;72.30;;;;;;6158559;23;20018;-88
2023/07/23 03:43:44;;;;;;;8.82;4.47;;;15.70;72.20;;;;;;6134337;23;20029;-89
2023/07/23 03:46:12;;;;;;;10.40;4.60;;;15.60;72.30;;;;;;6158673;23;20031;-88
2023/07/23 03:48:39;;;;;;;8.75;4.80;;;15.60;72.30;;;;;;6158878;23;20036;-89
2023/07/23 03:51:06;;;;;;;12.77;5.15;;;15.60;72.60;;;;;;6134077;23;20096;-89
2023/07/23 03:53:33;;;;;;;9.45;4.40;;;15.60;72.70;;;;;;6160548;23;20017;-88
2023/07/23 03:56:00;;;;;;;10.18;4.60;;;15.60;72.90;;;;;;6163459;23;20051;-88
2023/07/23 03:58:27;;;;;;;10.00;4.90;;;15.50;72.80;;;;;;6139110;23;20045;-89
2023/07/23 04:00:55;;;;;;;8.25;4.72;;;15.50;73.00;;;;;;6139230;23;20075;-89
2023/07/23 04:03:22;;;;;;;9.35;4.60;;;15.50;73.00;;;;;;6138894;23;20021;-88
2023/07/23 04:05:49;;;;;;;8.75;4.35;;;15.50;73.10;;;;;;6163551;23;20017;-89
2023/07/23 04:08:16;;;;;;;9.50;4.35;;;15.50;73.10;;;;;;6139114;23;20045;-89
2023/07/23 04:10:43;;;;;;;9.77;4.90;;;15.50;73.10;;;;;;6139025;23;20017;-89
2023/07/23 04:13:10;;;;;;;9.35;4.50;;;15.50;73.10;;;;;;6139074;23;20028;-89
2023/07/23 04:15:37;;;;;;;9.10;4.20;;;15.60;72.80;;;;;;6139038;23;20534;-88
2023/07/23 04:18:13;;;;;;;8.50;4.43;;;15.70;72.60;;;;;;6138901;23;20021;-88
2023/07/23 04:20:41;;;;;;;8.10;4.50;;;15.70;72.60;;;;;;6138869;23;20071;-89
2023/07/23 04:23:08;;;;;;;8.60;4.70;;;15.80;72.30;;;;;;6138666;23;20020;-89
2023/07/23 04:25:36;;;;;;;7.85;4.22;;;15.80;72.30;;;;;;6138914;23;20025;-88
2023/07/23 04:28:03;;;;;;;9.32;4.53;;;16.00;72.10;;;;;;6138734;23;20036;-88
2023/07/23 04:30:32;;;;;;;9.45;4.38;;;16.00;71.80;;;;;;6163237;23;20017;-88
2023/07/23 04:33:00;;;;;;;9.07;4.57;;;16.00;71.70;;;;;;6137179;23;20031;-89
2023/07/23 04:35:27;;;;;;;9.80;4.70;;;16.10;72.00;;;;;;6137678;23;20357;-89
2023/07/23 04:37:54;;;;;;;8.30;4.40;;;16.10;71.90;;;;;;6162090;23;20017;-88
2023/07/23 04:40:21;;;;;;;10.02;4.47;;;16.20;71.20;;;;;;6138084;23;20021;-88
2023/07/23 04:42:48;;;;;;;8.45;4.57;;;16.20;70.90;;;;;;6137252;23;20020;-88
2023/07/23 04:45:15;;;;;;;8.23;4.47;;;16.40;70.80;;;;;;6137144;23;20068;-88
2023/07/23 04:47:42;;;;;;;9.87;4.50;;;16.50;70.20;;;;;;6137456;23;20017;-88
2023/07/23 04:50:09;;;;;;;9.20;4.70;;;16.60;69.90;;;;;;6137193;23;20021;-88
2023/07/23 04:52:36;;;;;;;10.18;4.55;;;16.60;69.80;;;;;;6137200;23;20344;-89
2023/07/23 04:55:04;;;;;;;9.02;4.47;;;16.70;70.00;;;;;;6161509;23;20080;-88
2023/07/23 04:57:31;;;;;;;8.10;4.55;;;16.60;70.20;;;;;;6161491;23;20048;-89
2023/07/23 04:59:58;;;;;;;9.20;4.70;;;16.60;70.10;;;;;;6161952;23;20041;-89
2023/07/23 05:02:25;;;;;;;9.05;4.93;;;16.60;70.30;;;;;;6137343;23;20021;-88
2023/07/23 05:04:52;;;;;;;8.27;4.47;;;16.70;70.60;;;;;;6161301;23;20456;-88
2023/07/23 05:07:19;;;;;;;9.55;4.70;;;16.80;70.70;;;;;;6137407;23;20016;-88
2023/07/23 05:09:46;;;;;;;8.02;4.53;;;16.90;70.50;;;;;;6161546;23;20047;-89
2023/07/23 05:12:13;;;;;;;8.40;4.57;;;17.00;70.30;;;;;;6137214;23;20075;-89
2023/07/23 05:14:40;;;;;;;9.40;4.43;;;17.20;69.90;;;;;;6137028;23;20025;-89
2023/07/23 05:17:08;;;;;;;8.65;4.78;;;17.30;69.50;;;;;;6136939;23;20099;-89
2023/07/23 05:19:35;;;;;;;9.75;4.22;;;17.40;69.10;;;;;;6136821;23;20029;-89
2023/07/23 05:22:02;;;;;;;10.80;4.43;;;17.40;69.30;;;;;;6136895;23;20017;-89
2023/07/23 05:24:29;;;;;;;8.23;4.67;;;17.40;69.50;;;;;;6136887;23;20344;-89
2023/07/23 05:26:56;;;;;;;9.98;4.80;;;17.40;69.10;;;;;;6136884;23;20021;-90
2023/07/23 05:29:23;;;;;;;9.48;5.03;;;17.50;69.10;;;;;;6136984;23;20096;-89
2023/07/23 05:31:50;;;;;;;9.15;4.70;;;17.50;69.10;;;;;;6136790;23;20020;-89
2023/07/23 05:34:17;;;;;;;7.22;3.92;;;17.60;69.30;;;;;;6136749;23;20056;-89
2023/07/23 05:36:44;;;;;;;7.93;4.57;;;17.90;68.40;;;;;;6136764;23;20021;-89
2023/07/23 05:39:11;;;;;;;7.85;4.57;;;18.10;68.20;;;;;;6161078;23;20021;-89
2023/07/23 05:41:39;;;;;;;8.55;4.50;;;18.30;68.00;;;;;;6137195;23;20025;-89
2023/07/23 05:44:06;;;;;;;8.45;4.65;;;18.50;67.30;;;;;;6136034;23;20025;-89
2023/07/23 05:46:33;;;;;;;9.63;4.13;;;18.60;67.20;;;;;;6161519;23;20021;-89
2023/07/23 05:49:00;;;;;;;7.93;3.93;;;18.70;67.20;;;;;;6136773;23;20017;-90
2023/07/23 05:51:27;;;;;;;8.30;4.35;;;18.90;66.40;;;;;;6136569;23;20017;-89
2023/07/23 05:53:55;;;;;;;7.75;4.10;;;19.10;66.20;;;;;;6136653;23;20240;-90
2023/07/23 05:56:22;;;;;;;9.95;4.07;;;19.20;64.80;;;;;;6136466;23;20021;-90
2023/07/23 05:58:48;;;;;;;9.18;3.90;;;19.30;65.40;;;;;;6136783;23;20483;-89
2023/07/23 06:01:15;;;;;;;6.57;3.60;;;19.50;65.60;;;;;;6136937;23;20072;-90
2023/07/23 06:03:43;;;;;;;7.45;4.10;;;19.70;64.30;;;;;;6136520;23;20540;-90
2023/07/23 06:06:21;;;;;;;9.25;4.30;;;19.90;64.60;;;;;;6139322;23;20044;-90
2023/07/23 06:08:48;;;;;;;7.75;3.70;;;20.10;65.10;;;;;;6136714;23;20021;-90
2023/07/23 06:11:15;;;;;;;8.65;4.15;;;20.30;63.90;;;;;;6136618;23;20021;-90
2023/07/23 06:13:42;;;;;;;7.17;3.87;;;20.40;62.80;;;;;;6136822;23;20021;-90
2023/07/23 06:16:10;;;;;;;6.75;4.03;;;20.60;63.10;;;;;;6136538;23;20019;-90
2023/07/23 06:18:37;;;;;;;8.93;3.90;;;20.80;61.80;;;;;;6136348;23;20013;-90
2023/07/23 06:21:04;;;;;;;7.82;3.53;;;21.00;62.20;;;;;;6136601;23;20024;-90
2023/07/23 06:23:32;;;;;;;9.77;2.65;;;21.00;60.90;;;;;;6136561;23;20017;-90
2023/07/23 06:26:00;;;;;;;6.90;2.70;;;21.10;61.40;;;;;;6161067;23;20017;-90
2023/07/23 06:28:27;;;;;;;6.22;2.53;;;21.00;60.40;;;;;;6136520;23;20021;-90
2023/07/23 06:30:54;;;;;;;7.85;3.13;;;21.00;60.60;;;;;;6136592;23;20357;-89
2023/07/23 06:33:22;;;;;;;7.20;2.35;;;21.10;61.50;;;;;;6136202;23;20094;-90
2023/07/23 06:35:49;;;;;;;7.28;2.92;;;21.10;60.30;;;;;;6160662;23;20017;-90
2023/07/23 06:38:16;;;;;;;8.37;3.17;;;21.10;59.90;;;;;;6136312;23;20435;-90
2023/07/23 06:40:55;;;;;;;5.88;2.50;;;21.30;60.80;;;;;;6136363;23;20031;-90
2023/07/23 06:43:22;;;;;;;7.20;2.50;;;21.40;59.20;;;;;;6160617;23;20017;-90
2023/07/23 06:45:51;;;;;;;6.22;2.83;;;21.50;59.10;;;;;;6136256;23;20021;-90
2023/07/23 06:48:20;;;;;;;6.07;2.42;;;21.50;58.60;;;;;;6160538;23;20013;-90
2023/07/23 06:50:47;;;;;;;6.47;2.53;;;21.50;58.80;;;;;;6136356;23;20017;-90
2023/07/23 06:53:14;;;;;;;5.50;2.28;;;21.60;59.20;;;;;;6136550;23;20047;-90
2023/07/23 06:56:05;;;;;;;5.65;2.60;;;21.70;57.40;;;;;;6135750;23;20538;-90
2023/07/23 06:58:37;;;;;;;7.40;2.72;;;21.70;57.50;;;;;;6136270;23;20048;-90
2023/07/23 07:01:06;;;;;;;4.93;2.30;;;21.70;58.10;;;;;;6161262;23;20024;-90
2023/07/23 07:03:33;;;;;;;5.93;2.57;;;21.60;57.50;;;;;;6136178;23;20024;-90
2023/07/23 07:06:01;;;;;;;6.82;2.50;;;21.80;58.60;;;;;;6136335;23;20017;-90
2023/07/23 07:08:28;;;;;;;7.10;2.60;;;21.90;57.60;;;;;;6136315;23;20028;-91
2023/07/23 07:11:01;;;;;;;5.88;2.38;;;21.90;57.70;;;;;;6160705;23;20111;-90
2023/07/23 07:13:29;;;;;;;6.47;2.60;;;22.00;57.60;;;;;;6136337;23;20020;-90
2023/07/23 07:15:56;;;;;;;6.50;2.50;;;21.90;57.60;;;;;;6136331;23;20083;-91
2023/07/23 07:18:25;;;;;;;6.88;2.80;;;22.10;58.10;;;;;;6136437;23;20049;-91
2023/07/23 07:21:00;;;;;;;8.43;2.35;;;22.20;58.30;;;;;;6136320;23;20047;-90
2023/07/23 07:23:28;;;;;;;7.28;2.25;;;22.40;58.50;;;;;;6136330;23;20013;-91
2023/07/23 07:25:56;;;;;;;6.90;2.47;;;22.50;57.60;;;;;;6136046;23;20036;-90
2023/07/23 07:28:29;;;;;;;5.77;2.50;;;22.50;57.30;;;;;;6160637;23;20104;-91
2023/07/23 07:30:58;;;;;;;5.30;1.92;;;22.40;56.90;;;;;;6135852;23;20053;-91
2023/07/23 07:33:25;;;;;;;6.72;2.40;;;22.30;56.80;;;;;;6136148;23;20049;-91
2023/07/23 07:35:57;;;;;;;5.82;2.20;;;22.10;57.80;;;;;;6136353;23;20078;-90
2023/07/23 07:38:25;;;;;;;5.38;2.35;;;22.30;58.00;;;;;;6160410;23;20521;-90
2023/07/23 07:40:52;;;;;;;7.47;2.43;;;22.30;58.30;;;;;;6135880;23;20039;-91
2023/07/23 07:43:19;;;;;;;7.90;2.35;;;22.60;58.40;;;;;;6136549;23;20329;-91
2023/07/23 07:45:53;;;;;;;6.07;2.05;;;22.80;58.00;;;;;;6136208;23;20027;-92
2023/07/23 07:48:21;;;;;;;6.70;2.30;;;22.90;56.20;;;;;;6135845;23;20081;-92
2023/07/23 07:50:57;;;;;;;7.25;2.13;;;23.00;56.90;;;;;;6136571;23;20017;-91
2023/07/23 07:53:24;;;;;;;5.77;2.20;;;23.00;56.20;;;;;;6135779;23;20021;-89
2023/07/23 07:55:52;;;;;;;6.80;2.53;;;23.10;57.40;;;;;;6135549;23;20028;-89
2023/07/23 07:58:24;;;;;;;6.22;2.53;;;23.20;57.40;;;;;;6135984;23;20036;-89
2023/07/23 08:00:55;;;;;;;6.88;2.50;;;23.30;57.00;;;;;;6135960;23;20359;-90
2023/07/23 08:03:26;;;;;;;6.47;2.58;;;23.50;55.50;;;;;;6136104;23;20047;-89
2023/07/23 08:05:55;;;;;;;5.50;2.57;;;23.60;57.00;;;;;;6135824;23;20467;-90
2023/07/23 08:08:25;;;;;;;6.47;2.45;;;23.70;56.40;;;;;;6136745;23;20095;-90
2023/07/23 08:10:54;;;;;;;7.03;2.63;;;24.00;57.10;;;;;;6137625;23;20124;-90
2023/07/23 08:13:22;;;;;;;11.13;2.50;;;24.00;55.70;;;;;;6137633;23;20029;-89
2023/07/23 08:15:49;;;;;;;5.60;2.33;;;24.20;58.10;;;;;;6161704;23;20024;-89
2023/07/23 08:18:20;;;;;;;6.10;2.03;;;24.30;54.90;;;;;;6137760;23;20075;-90
2023/07/23 08:20:47;;;;;;;7.18;2.35;;;24.50;56.30;;;;;;6137321;23;20040;-89
2023/07/23 08:23:14;;;;;;;6.82;2.53;;;24.50;53.50;;;;;;6161489;23;20055;-90
2023/07/23 08:25:46;;;;;;;6.28;2.40;;;24.60;56.10;;;;;;6137207;23;20072;-89
2023/07/23 08:28:20;;;;;;;9.68;2.40;;;24.60;55.60;;;;;;6137615;23;20020;-89
2023/07/23 08:30:47;;;;;;;6.50;2.30;;;24.90;54.20;;;;;;6137514;23;20044;-89
2023/07/23 08:33:17;;;;;;;6.80;2.35;;;25.00;56.00;;;;;;6137334;23;20025;-89
2023/07/23 08:35:45;;;;;;;9.02;2.70;;;25.10;55.10;;;;;;6161880;23;20017;-89
2023/07/23 08:38:12;;;;;;;8.02;2.55;;;25.30;54.20;;;;;;6137349;23;20443;-90
2023/07/23 08:40:44;;;;;;;12.07;3.30;;;25.40;52.30;;;;;;6162216;23;20021;-91
2023/07/23 08:43:29;;;;;;;9.00;2.80;;;25.60;53.20;;;;;;6137212;23;20013;-91
2023/07/23 08:45:59;;;;;;;7.32;2.20;;;25.70;53.50;;;;;;6162134;23;20044;-91
2023/07/23 08:48:55;;;;;;;4.75;1.52;;;25.80;48.90;;;;;;6137260;23;20355;-91
2023/07/23 08:51:31;;;;;;;3.90;1.40;;;25.90;45.00;;;;;;6137198;23;20102;-91
2023/07/23 08:53:59;;;;;;;6.85;1.40;;;25.90;43.70;;;;;;6137302;23;20104;-91
2023/07/23 08:56:26;;;;;;;8.73;1.53;;;25.90;44.20;;;;;;6137434;23;20029;-91
2023/07/23 08:58:53;;;;;;;4.47;1.60;;;26.00;44.10;;;;;;6137477;23;20024;-90
2023/07/23 09:01:21;;;;;;;6.38;1.70;;;26.10;42.20;;;;;;6161914;23;20096;-90
2023/07/23 09:03:48;;;;;;;5.95;1.58;;;26.10;43.10;;;;;;6136891;23;20104;-91
2023/07/23 09:06:17;;;;;;;7.32;1.67;;;26.30;42.50;;;;;;6137184;23;20021;-91
2023/07/23 09:08:44;;;;;;;4.97;1.53;;;26.30;42.10;;;;;;6161391;23;20024;-90
2023/07/23 09:11:11;;;;;;;7.70;1.80;;;26.30;43.60;;;;;;6137011;23;20013;-90
2023/07/23 09:13:38;;;;;;;6.80;1.65;;;26.50;44.20;;;;;;6137515;23;20021;-91
2023/07/23 09:16:05;;;;;;;4.72;1.58;;;26.50;43.20;;;;;;6137043;23;20025;-91
2023/07/23 09:18:40;;;;;;;6.15;1.77;;;26.60;41.80;;;;;;6137123;23;20459;-90
2023/07/23 09:21:09;;;;;;;5.87;1.70;;;26.60;41.80;;;;;;6137231;23;20024;-90
2023/07/23 09:23:36;;;;;;;6.05;1.85;;;26.50;41.90;;;;;;6136847;23;20031;-91
2023/07/23 09:26:03;;;;;;;5.35;1.70;;;26.60;42.60;;;;;;6136920;23;20023;-91
2023/07/23 09:28:34;;;;;;;5.97;1.90;;;26.60;41.40;;;;;;6136967;23;20017;-91
2023/07/23 09:31:02;;;;;;;4.90;1.90;;;26.70;43.00;;;;;;6136987;23;20045;-89
2023/07/23 09:33:36;;;;;;;8.57;2.20;;;26.90;41.80;;;;;;6137039;23;20051;-91
2023/07/23 09:36:05;;;;;;;6.32;2.10;;;26.90;43.00;;;;;;6136737;23;20024;-90
2023/07/23 09:38:33;;;;;;;8.15;2.10;;;27.00;41.40;;;;;;6137352;23;20068;-91
2023/07/23 09:41:01;;;;;;;4.72;1.58;;;27.10;40.60;;;;;;6137044;23;20021;-90
2023/07/23 09:43:28;;;;;;;7.18;2.22;;;27.00;42.30;;;;;;6160931;23;20020;-91
2023/07/23 09:45:55;;;;;;;6.43;1.90;;;27.10;42.70;;;;;;6136837;23;20021;-90
2023/07/23 09:48:23;;;;;;;7.95;2.08;;;27.40;44.10;;;;;;6137250;23;20017;-91
2023/07/23 09:50:56;;;;;;;8.02;2.22;;;27.50;43.10;;;;;;6137116;23;20021;-90
2023/07/23 09:53:23;;;;;;;6.20;1.60;;;27.50;42.00;;;;;;6137172;23;20024;-90
2023/07/23 09:55:51;;;;;;;5.20;1.70;;;27.50;41.20;;;;;;6137389;23;20021;-90
2023/07/23 09:58:20;;;;;;;6.57;2.00;;;27.50;41.10;;;;;;6136886;23;20071;-91
2023/07/23 10:00:47;;;;;;;6.38;1.80;;;27.50;41.50;;;;;;6137001;23;20506;-91
2023/07/23 10:03:17;;;;;;;7.30;1.75;;;27.40;40.10;;;;;;6161081;23;20020;-91
2023/07/23 10:05:45;;;;;;;5.38;1.80;;;27.40;38.50;;;;;;6136835;23;20016;-91
2023/07/23 10:08:13;;;;;;;5.32;1.33;;;27.30;39.60;;;;;;6161002;23;20055;-91
2023/07/23 10:10:40;;;;;;;5.07;1.80;;;27.30;38.90;;;;;;6136724;23;20021;-91
2023/07/23 10:13:07;;;;;;;7.00;1.88;;;27.30;38.20;;;;;;6136937;23;20017;-91
2023/07/23 10:15:37;;;;;;;6.45;2.22;;;27.30;39.20;;;;;;6137238;23;20023;-91
2023/07/23 10:18:06;;;;;;;5.45;2.10;;;27.40;41.30;;;;;;6136973;23;20502;-91
2023/07/23 10:20:33;;;;;;;7.97;2.05;;;27.40;41.50;;;;;;6136685;23;20072;-89
2023/07/23 10:23:06;;;;;;;5.30;1.90;;;27.60;39.90;;;;;;6136828;23;20071;-91
2023/07/23 10:25:35;;;;;;;8.00;2.40;;;27.60;40.40;;;;;;6136606;23;20024;-90
2023/07/23 10:28:21;;;;;;;7.65;2.17;;;27.60;40.30;;;;;;6162447;23;20440;-90
2023/07/23 10:31:19;;;;;;;8.10;2.15;;;27.80;39.40;;;;;;6136438;23;20023;-91
2023/07/23 10:33:47;;;;;;;7.32;2.08;;;27.80;39.80;;;;;;6137017;23;20021;-90
2023/07/23 10:36:14;;;;;;;5.73;1.80;;;27.60;39.70;;;;;;6136583;23;20444;-89
2023/07/23 10:38:41;;;;;;;6.07;2.00;;;27.60;39.50;;;;;;6160780;23;20048;-89
2023/07/23 10:41:08;;;;;;;6.53;2.17;;;27.60;39.50;;;;;;6136444;23;20052;-89
2023/07/23 10:43:42;;;;;;;5.40;1.90;;;27.80;40.60;;;;;;6136078;23;20071;-89
2023/07/23 10:46:16;;;;;;;6.53;2.00;;;27.70;39.20;;;;;;6136256;23;20072;-90
2023/07/23 10:48:51;;;;;;;6.97;2.10;;;27.70;40.00;;;;;;6136406;23;20017;-90
2023/07/23 10:51:20;;;;;;;5.20;1.65;;;27.80;38.50;;;;;;6136657;23;20024;-90
2023/07/23 10:53:55;;;;;;;6.95;2.35;;;28.00;39.90;;;;;;6136068;23;20021;-90
2023/07/23 10:56:35;;;;;;;6.15;2.42;;;28.10;37.90;;;;;;6136032;23;20111;-90
2023/07/23 10:59:10;;;;;;;7.35;2.10;;;28.10;38.10;;;;;;6136673;23;20021;-90
2023/07/23 11:01:41;;;;;;;5.73;2.17;;;28.10;37.80;;;;;;6136436;23;20024;-90
2023/07/23 11:04:13;;;;;;;6.75;2.30;;;28.10;37.50;;;;;;6136529;23;20503;-90
2023/07/23 11:07:04;;;;;;;7.55;2.05;;;28.10;39.40;;;;;;6136331;23;20013;-90
2023/07/23 11:09:33;;;;;;;5.45;2.10;;;28.20;37.00;;;;;;6136219;23;20023;-90
2023/07/23 11:12:05;;;;;;;4.78;1.70;;;28.30;36.00;;;;;;6136505;23;20044;-90
2023/07/23 11:14:36;;;;;;;6.70;2.20;;;28.30;37.40;;;;;;6136242;23;20021;-90
2023/07/23 11:17:06;;;;;;;7.63;2.15;;;28.40;35.90;;;;;;6136128;23;20041;-90
2023/07/23 11:19:34;;;;;;;7.57;2.17;;;28.30;36.40;;;;;;6136237;23;20332;-91
2023/07/23 11:22:03;;;;;;;5.70;2.38;;;28.60;39.10;;;;;;6135887;23;20061;-90
2023/07/23 11:24:32;;;;;;;6.05;2.20;;;28.60;35.90;;;;;;6136523;23;20510;-91
2023/07/23 11:27:02;;;;;;;7.60;2.30;;;28.50;37.20;;;;;;6136349;23;20356;-90
2023/07/23 11:29:30;;;;;;;5.63;2.17;;;28.60;37.20;;;;;;6136196;23;20028;-90
2023/07/23 11:32:03;;;;;;;7.97;2.60;;;28.40;35.30;;;;;;6137144;23;20017;-90
2023/07/23 11:34:31;;;;;;;6.35;2.25;;;28.50;35.70;;;;;;6136154;23;20025;-91
2023/07/23 11:36:58;;;;;;;7.68;2.17;;;28.70;34.90;;;;;;6135738;23;20021;-90
2023/07/23 11:39:25;;;;;;;8.60;2.50;;;28.80;35.60;;;;;;6136085;23;20076;-90
2023/07/23 11:41:53;;;;;;;5.78;2.05;;;28.80;35.60;;;;;;6137094;23;20052;-91
2023/07/23 11:44:21;;;;;;;6.75;2.22;;;28.60;35.70;;;;;;6138299;23;20328;-91
2023/07/23 11:46:48;;;;;;;5.88;2.20;;;28.30;36.90;;;;;;6138709;23;20020;-91
2023/07/23 11:49:15;;;;;;;6.85;2.45;;;28.30;37.20;;;;;;6162473;23;20021;-91
2023/07/23 11:51:42;;;;;;;6.23;1.77;;;28.10;36.70;;;;;;6138389;23;20043;-90
2023/07/23 11:54:11;;;;;;;7.03;1.88;;;28.00;36.80;;;;;;6157495;23;20068;-91
2023/07/23 11:56:46;;;;;;;7.13;2.20;;;28.10;39.00;;;;;;6133331;23;20088;-90
2023/07/23 11:59:16;;;;;;;6.13;2.10;;;28.10;37.80;;;;;;6133047;23;20022;-90
2023/07/23 12:01:45;;;;;;;5.55;2.28;;;28.00;38.30;;;;;;6157894;23;20022;-90
2023/07/23 12:04:13;;;;;;;5.97;1.93;;;27.80;38.40;;;;;;6133162;23;20096;-90
2023/07/23 12:06:41;;;;;;;8.65;2.58;;;27.90;38.10;;;;;;6132931;23;20013;-90
2023/07/23 12:09:20;;;;;;;7.55;2.03;;;28.20;38.50;;;;;;6157474;23;20045;-90
2023/07/23 12:11:47;;;;;;;6.43;2.20;;;28.60;37.30;;;;;;6157576;23;20512;-91
2023/07/23 12:14:15;;;;;;;7.15;2.42;;;28.60;38.70;;;;;;6157261;23;20024;-90
2023/07/23 12:16:46;;;;;;;6.63;2.20;;;28.90;38.70;;;;;;6157037;23;20024;-92
2023/07/23 12:19:17;;;;;;;5.78;1.90;;;29.10;38.20;;;;;;6133280;23;20448;-93
2023/07/23 12:21:46;;;;;;;5.60;2.15;;;29.20;37.40;;;;;;6158530;23;20104;-95
2023/07/23 12:24:26;;;;;;;7.25;2.28;;;29.20;36.80;;;;;;6157877;23;20017;-93
2023/07/23 12:26:55;;;;;;;5.93;2.00;;;29.20;35.50;;;;;;6157368;23;20021;-92
2023/07/23 12:29:24;;;;;;;7.00;2.23;;;29.30;36.70;;;;;;6132969;23;20028;-92
2023/07/23 12:32:12;;;;;;;7.40;2.20;;;29.40;38.20;;;;;;6132563;23;20096;-92
2023/07/23 12:34:41;;;;;;;6.65;2.33;;;29.60;35.40;;;;;;6157352;23;20108;-93
2023/07/23 12:37:08;;;;;;;6.65;1.73;;;29.60;35.10;;;;;;6132846;23;20033;-92
2023/07/23 12:39:35;;;;;;;6.93;2.28;;;29.50;34.80;;;;;;6133085;23;20057;-94
2023/07/23 12:42:03;;;;;;;14.90;2.27;;;29.60;34.70;;;;;;6133175;23;20017;-93
2023/07/23 12:44:30;;;;;;;8.82;2.25;;;29.50;35.90;;;;;;6133229;23;20360;-92
2023/07/23 12:46:57;;;;;;;6.80;2.10;;;29.40;35.70;;;;;;6133100;23;20024;-92
2023/07/23 12:49:24;;;;;;;7.63;2.22;;;29.50;36.70;;;;;;6133080;23;20045;-92
2023/07/23 12:56:07;;;;;;;7.03;2.20;;;29.90;36.70;;;;;;6186057;23;20023;-93
2023/07/23 12:58:34;;;;;;;6.28;2.35;;;29.90;37.80;;;;;;6137979;23;20375;-92